Accueil
METAR-TAF:

METAR-TAF

Aéroports :

Cranfield, Angleterre

latitude: 52-04N, longitude: 000-37W, altitude: 111 m

Observation

Le bulletin a été fait il y a 44 minutes, à 07:20 UTC
Vent 5 kt de ouest/sud-ouest
Température 9°C
Humidité 100%
Pression 1031 hPa
Visibilité 10 km ou plus
Nuages fragmentés à une hauteur de 1100 ft

METAR: EGTC 200720Z 24005KT 9999 BKN011 09/09 Q1031

Heure: 08:04 (08:04 UTC)

Prévision

Le bulletin a été fait il y a 18 heures et 1 minutes, à 14:03 UTC
Prévision valable du 19 à 15 UTC au 19 à 19 UTC
Vent 8 kt de sud-ouest
Visibilité 10 km ou plus
Quelques nuages à une hauteur de 1500 ft
Nuages épars à une hauteur de 2500 ft
Probabilité 30% :
Temporairement
du 19 à 15 UTC au 19 à 19 UTC
Visibilité: 9000 m
Nuages fragmentés à une hauteur de 1000 ft

TAF: EGTC 191403Z 1915/1919 23008KT 9999 FEW015 SCT025 PROB30 TEMPO 1915/1919 9000 BKN010

Observations et prévisions météorologiques de plus de 4000 aéroports (messages METAR et TAF).

Les stations disponibles sont représentées par des disques jaunes et rouges sur la carte.

Passer la souris dessus pour voir le nom de la station.

Cliquer dessus pour voir les observations et prévisions météorologiques.

Pour changer de carte: cliquez sur les boutons verts avec une croix noire pour zoomer, sur le bouton vert avec un tiret pour effectuer un zoom arrière, ou sur les flèches vertes pour les cartes adjacentes.


METAR-TAF: